createdAt,value
2024-02-08T00:07:53.499Z,79.10
2024-02-08T00:17:56.703Z,79.30
2024-02-08T00:27:58.869Z,79.40
2024-02-08T00:38:01.839Z,79.50
2024-02-08T00:48:05.656Z,79.80
2024-02-08T00:58:07.792Z,79.90
2024-02-08T01:08:09.924Z,80.00
2024-02-08T01:18:12.091Z,79.90
2024-02-08T01:28:16.938Z,79.50
2024-02-08T01:38:19.548Z,79.80
2024-02-08T01:48:21.616Z,79.90
2024-02-08T01:58:26.064Z,80.00
2024-02-08T02:08:34.658Z,80.10
2024-02-08T02:18:37.721Z,80.00
2024-02-08T02:28:41.654Z,80.00
2024-02-08T02:38:46.199Z,80.20
2024-02-08T02:48:48.349Z,80.00
2024-02-08T02:58:50.555Z,79.80
2024-02-08T03:08:52.650Z,79.80
2024-02-08T03:18:54.745Z,79.70
2024-02-08T03:28:57.817Z,79.70
2024-02-08T03:39:04.971Z,79.70
2024-02-08T03:49:10.096Z,79.90
2024-02-08T03:59:13.610Z,80.00
2024-02-08T04:09:34.858Z,80.00
2024-02-08T04:19:56.955Z,79.90
2024-02-08T04:30:17.331Z,80.00
2024-02-08T04:40:40.777Z,80.00
2024-02-08T04:51:01.716Z,80.00
2024-02-08T05:01:04.544Z,80.00
2024-02-08T05:11:10.976Z,79.90
2024-02-08T05:21:15.690Z,79.30
2024-02-08T05:31:17.788Z,79.20
2024-02-08T05:41:23.262Z,79.90
2024-02-08T05:51:27.436Z,79.80
2024-02-08T06:01:33.370Z,80.00
2024-02-08T06:11:40.423Z,80.10
2024-02-08T06:21:43.187Z,79.70
2024-02-08T06:31:51.819Z,80.20
2024-02-08T06:41:54.733Z,80.10
2024-02-08T06:52:15.230Z,80.50
2024-02-08T07:02:35.761Z,80.40
2024-02-08T07:12:56.300Z,80.10
2024-02-08T07:23:16.771Z,80.50
2024-02-08T07:33:37.365Z,80.80
2024-02-08T07:43:44.874Z,80.40
2024-02-08T07:53:51.960Z,80.30
2024-02-08T08:03:57.999Z,80.30
2024-02-08T08:14:00.139Z,80.40
2024-02-08T08:24:03.395Z,80.40
2024-02-08T08:34:23.876Z,80.20
2024-02-08T08:44:31.499Z,80.40
2024-02-08T08:54:37.327Z,80.30
2024-02-08T09:04:39.557Z,80.70
2024-02-08T09:14:54.240Z,80.60
2024-02-08T09:24:57.439Z,80.80
2024-02-08T09:35:00.030Z,80.80
2024-02-08T09:45:24.790Z,81.10
2024-02-08T09:55:33.420Z,81.40
2024-02-08T10:05:58.732Z,81.10
2024-02-08T10:16:10.693Z,80.80
2024-02-08T10:26:21.778Z,80.50
2024-02-08T10:36:32.113Z,81.00
2024-02-08T10:46:35.304Z,81.10
2024-02-08T10:56:45.930Z,81.30
2024-02-08T11:06:59.037Z,81.00
2024-02-08T11:17:06.553Z,81.20
2024-02-08T11:27:14.365Z,81.30
2024-02-08T11:37:19.552Z,81.20
2024-02-08T11:47:24.876Z,81.30
2024-02-08T11:57:37.727Z,81.40
2024-02-08T12:07:46.597Z,81.20
2024-02-08T12:17:54.075Z,81.00
2024-02-08T12:28:06.426Z,81.10
2024-02-08T12:38:10.232Z,81.30
2024-02-08T12:48:17.953Z,81.60
2024-02-08T12:58:20.569Z,81.80
2024-02-08T13:08:24.673Z,81.90
2024-02-08T13:18:31.156Z,82.20
2024-02-08T13:28:34.054Z,82.10
2024-02-08T13:38:40.118Z,81.80
2024-02-08T13:48:42.911Z,82.20
2024-02-08T13:58:45.075Z,82.60
2024-02-08T14:08:51.396Z,83.00
2024-02-08T14:18:55.873Z,83.50
2024-02-08T14:28:58.449Z,83.50
2024-02-08T14:39:01.257Z,83.20
2024-02-08T14:49:18.794Z,83.10
2024-02-08T14:59:21.320Z,83.00
2024-02-08T15:09:35.218Z,82.90
2024-02-08T15:19:46.591Z,82.80
2024-02-08T15:29:53.976Z,82.70
2024-02-08T15:40:11.515Z,83.10
2024-02-08T15:50:16.716Z,83.40
2024-02-08T16:00:37.588Z,83.20
2024-02-08T16:10:39.708Z,83.20
2024-02-08T16:20:50.711Z,83.30
2024-02-08T16:30:59.573Z,83.20
2024-02-08T16:41:06.332Z,83.30
2024-02-08T16:51:11.524Z,83.10
2024-02-08T17:01:34.253Z,83.20
2024-02-08T17:11:36.689Z,83.20
2024-02-08T17:21:50.620Z,83.30
2024-02-08T17:31:52.971Z,83.10
2024-02-08T17:41:58.219Z,83.20
2024-02-08T17:52:00.848Z,83.30
2024-02-08T18:02:03.552Z,83.30
2024-02-08T18:12:13.631Z,83.40
2024-02-08T18:22:29.846Z,84.00
2024-02-08T18:32:35.896Z,83.70
2024-02-08T18:42:39.679Z,83.60
2024-02-08T18:52:43.095Z,83.50
2024-02-08T19:02:45.580Z,83.40
2024-02-08T19:12:52.722Z,87.70
2024-02-08T19:22:58.193Z,88.10
2024-02-08T19:33:00.416Z,90.00
2024-02-08T19:43:04.418Z,90.00
2024-02-08T19:53:07.484Z,89.80
2024-02-08T20:03:17.400Z,90.20
2024-02-08T20:13:24.479Z,89.50
2024-02-08T20:23:33.558Z,90.50
2024-02-08T20:33:38.480Z,90.20
2024-02-08T20:43:49.313Z,89.70
2024-02-08T20:53:51.475Z,89.50
2024-02-08T21:03:53.677Z,89.20
2024-02-08T21:13:56.069Z,88.80
2024-02-08T21:23:58.216Z,88.80
2024-02-08T21:34:00.574Z,88.10
2024-02-08T21:44:02.598Z,88.50
2024-02-08T21:54:06.162Z,88.50
2024-02-08T22:04:09.330Z,88.60
2024-02-08T22:14:11.555Z,88.30
2024-02-08T22:24:15.150Z,87.50
2024-02-08T22:34:19.880Z,87.10
2024-02-08T22:44:22.899Z,86.90
2024-02-08T22:54:25.437Z,87.40
2024-02-08T23:04:31.703Z,86.30
2024-02-08T23:14:34.201Z,86.50
2024-02-08T23:24:41.891Z,86.10
2024-02-08T23:34:44.351Z,86.20
2024-02-08T23:44:46.471Z,86.00
2024-02-08T23:54:49.170Z,86.10
